Kaneohe, HI

03:36 PM HST am 29. September 2016 (GMT -1000)
Haiku Plantations | | Change Station

Höhe 249 ft 21.42 °N, 157.82 °W | Updated 1 second ago

Bedeckt
Bedeckt
76.5 °F
gefühlte 78 °F
N
0.0
Wind Wechselnd Wind aus West-Nordwest
Gusts 0.0 mph

Heute
Max. -- | schwach -- °F
--% Regenrisiko
Gestern
Max. -- | schwach -- °F
Precip. -- inch
Druck 29.95 inch
Sichtweite 5.0 Meilen
Wolken Few 1600 ft
Wolkig 4100 ft
Bedeckt 5000 ft
Hitzeindex 78 °F
Taupunkt 64 °F
Feuchtigkeit 64%
Regen 0.81 inch
Schneehöhe Nicht verfügbar..
6:22 AM 6:20 PM
Letztes Viertel, 1% visible
METAR PHNG 300057Z 05007KT 5SM -RA BR FEW016 BKN041 OVC050 24/22 A2996 RMK AO2 RAB39 SLP141 P0001 T02440222 $
Druck 29.95 inch
Sichtweite 5.0 Meilen
Wolken Few 1600 ft
Wolkig 4100 ft
Bedeckt 5000 ft
Hitzeindex 78 °F
Taupunkt 64 °F
Feuchtigkeit 64%
Regen 0.81 inch
Schneehöhe Nicht verfügbar..
6:22 AM 6:20 PM
Letztes Viertel, 1% visible
METAR PHNG 300057Z 05007KT 5SM -RA BR FEW016 BKN041 OVC050 24/22 A2996 RMK AO2 RAB39 SLP141 P0001 T02440222 $

10-Day Weather Forecast

Almanac

Astronomie

Sep. 29, 2016 Aufgang Untergang
Genaue Zeit
Bürgerliche Dämmerung
Nautische Dämmerung
Astronomische Dämmerung
Mond
Länge des sichtbaren Lichts
Tageslänge
Tomorrow will be .
, % of the Moon is Illuminated

Heutige Rekorde

State Highs State Lows

Community

WunderPhotos

Upload Photos

1,942,626 Fotos hochgeladen!

WunderBlog® & News

Nearby

Luftqualität

  Luftqualität LQ Index Schadstoff
Not available.

Schneehöhe

Station Depth Höhe

Erdbebenaktivität

Stadt Distance Mag. Time & Date
Minimum magnitude displayed is 2.5.

küstennahe Wassertemperaturen

Ort Temperatur

Stations

Wetterstationen in der Umgebung

Stationsstandort Temp. Windchill Taupunkt Feuchtigkeit Wind Precip. Höhe Aktualisiert Art
                   

Watches & Warnings

There are currently no watches in effect.